sensor_id;sensor_type;location;lat;lon;timestamp;temperature;humidity
55211;DHT22;41082;52.822;6.666;2023-07-29T00:01:34;19.30;99.90
55211;DHT22;41082;52.822;6.666;2023-07-29T00:04:00;19.30;99.90
55211;DHT22;41082;52.822;6.666;2023-07-29T00:06:26;19.30;99.90
55211;DHT22;41082;52.822;6.666;2023-07-29T00:08:51;19.30;99.90
55211;DHT22;41082;52.822;6.666;2023-07-29T00:11:17;19.30;99.90
55211;DHT22;41082;52.822;6.666;2023-07-29T00:13:43;19.20;99.90
55211;DHT22;41082;52.822;6.666;2023-07-29T00:16:08;19.20;99.90
55211;DHT22;41082;52.822;6.666;2023-07-29T00:18:34;19.20;99.90
55211;DHT22;41082;52.822;6.666;2023-07-29T00:20:59;19.10;99.90
55211;DHT22;41082;52.822;6.666;2023-07-29T00:23:25;19.10;99.90
55211;DHT22;41082;52.822;6.666;2023-07-29T00:25:50;19.10;99.90
55211;DHT22;41082;52.822;6.666;2023-07-29T00:28:16;19.00;99.90
55211;DHT22;41082;52.822;6.666;2023-07-29T00:30:41;19.10;99.90
55211;DHT22;41082;52.822;6.666;2023-07-29T00:33:07;19.10;99.90
55211;DHT22;41082;52.822;6.666;2023-07-29T00:35:33;19.00;99.90
55211;DHT22;41082;52.822;6.666;2023-07-29T00:37:59;19.00;99.90
55211;DHT22;41082;52.822;6.666;2023-07-29T00:40:27;19.00;99.90
55211;DHT22;41082;52.822;6.666;2023-07-29T00:42:53;19.00;99.90
55211;DHT22;41082;52.822;6.666;2023-07-29T00:45:19;18.90;99.90
55211;DHT22;41082;52.822;6.666;2023-07-29T00:47:45;18.90;99.90
55211;DHT22;41082;52.822;6.666;2023-07-29T00:50:11;18.90;99.90
55211;DHT22;41082;52.822;6.666;2023-07-29T00:52:38;18.90;99.90
55211;DHT22;41082;52.822;6.666;2023-07-29T00:55:05;18.90;99.90
55211;DHT22;41082;52.822;6.666;2023-07-29T00:57:31;18.80;99.90
55211;DHT22;41082;52.822;6.666;2023-07-29T00:59:57;18.80;99.90
55211;DHT22;41082;52.822;6.666;2023-07-29T01:02:23;18.80;99.90
55211;DHT22;41082;52.822;6.666;2023-07-29T01:04:57;18.80;99.90
55211;DHT22;41082;52.822;6.666;2023-07-29T01:07:40;18.80;99.90
55211;DHT22;41082;52.822;6.666;2023-07-29T01:12:54;18.70;99.90
55211;DHT22;41082;52.822;6.666;2023-07-29T01:15:28;18.70;99.90
55211;DHT22;41082;52.822;6.666;2023-07-29T01:18:11;18.70;99.90
55211;DHT22;41082;52.822;6.666;2023-07-29T01:20:40;18.70;99.90
55211;DHT22;41082;52.822;6.666;2023-07-29T01:23:07;18.70;99.90
55211;DHT22;41082;52.822;6.666;2023-07-29T01:25:33;18.60;99.90
55211;DHT22;41082;52.822;6.666;2023-07-29T01:27:58;18.60;99.90
55211;DHT22;41082;52.822;6.666;2023-07-29T01:30:30;18.60;99.90
55211;DHT22;41082;52.822;6.666;2023-07-29T01:33:16;18.60;99.90
55211;DHT22;41082;52.822;6.666;2023-07-29T01:35:54;18.50;99.90
55211;DHT22;41082;52.822;6.666;2023-07-29T01:38:30;18.60;99.90
55211;DHT22;41082;52.822;6.666;2023-07-29T01:41:03;18.50;99.90
55211;DHT22;41082;52.822;6.666;2023-07-29T01:43:29;18.50;99.90
55211;DHT22;41082;52.822;6.666;2023-07-29T01:45:56;18.50;99.90
55211;DHT22;41082;52.822;6.666;2023-07-29T01:48:22;18.50;99.90
55211;DHT22;41082;52.822;6.666;2023-07-29T01:50:48;18.50;99.90
55211;DHT22;41082;52.822;6.666;2023-07-29T01:53:13;18.40;99.90
55211;DHT22;41082;52.822;6.666;2023-07-29T01:55:41;18.40;99.90
55211;DHT22;41082;52.822;6.666;2023-07-29T01:58:06;18.40;99.90
55211;DHT22;41082;52.822;6.666;2023-07-29T02:00:32;18.40;99.90
55211;DHT22;41082;52.822;6.666;2023-07-29T02:02:57;18.40;99.90
55211;DHT22;41082;52.822;6.666;2023-07-29T02:05:23;18.40;99.90
55211;DHT22;41082;52.822;6.666;2023-07-29T02:07:48;18.40;99.90
55211;DHT22;41082;52.822;6.666;2023-07-29T02:10:14;18.30;99.90
55211;DHT22;41082;52.822;6.666;2023-07-29T02:12:40;18.30;99.90
55211;DHT22;41082;52.822;6.666;2023-07-29T02:15:06;18.30;99.90
55211;DHT22;41082;52.822;6.666;2023-07-29T02:17:32;18.30;99.90
55211;DHT22;41082;52.822;6.666;2023-07-29T02:19:57;18.30;99.90
55211;DHT22;41082;52.822;6.666;2023-07-29T02:22:23;18.30;99.90
55211;DHT22;41082;52.822;6.666;2023-07-29T02:24:48;18.30;99.90
55211;DHT22;41082;52.822;6.666;2023-07-29T02:27:14;18.20;99.90
55211;DHT22;41082;52.822;6.666;2023-07-29T02:29:39;18.30;99.90
55211;DHT22;41082;52.822;6.666;2023-07-29T02:32:05;18.30;99.90
55211;DHT22;41082;52.822;6.666;2023-07-29T02:34:31;18.20;99.90
55211;DHT22;41082;52.822;6.666;2023-07-29T02:36:56;18.20;99.90
55211;DHT22;41082;52.822;6.666;2023-07-29T02:39:22;18.20;99.90
55211;DHT22;41082;52.822;6.666;2023-07-29T02:41:48;18.20;99.90
55211;DHT22;41082;52.822;6.666;2023-07-29T02:44:14;18.20;99.90
55211;DHT22;41082;52.822;6.666;2023-07-29T02:46:40;18.20;99.90
55211;DHT22;41082;52.822;6.666;2023-07-29T02:49:06;18.20;99.90
55211;DHT22;41082;52.822;6.666;2023-07-29T02:51:31;18.20;99.90
55211;DHT22;41082;52.822;6.666;2023-07-29T02:53:57;18.20;99.90
55211;DHT22;41082;52.822;6.666;2023-07-29T02:56:23;18.20;99.90
55211;DHT22;41082;52.822;6.666;2023-07-29T02:58:49;18.20;99.90
55211;DHT22;41082;52.822;6.666;2023-07-29T03:01:17;18.20;99.90
55211;DHT22;41082;52.822;6.666;2023-07-29T03:03:42;18.20;99.90
55211;DHT22;41082;52.822;6.666;2023-07-29T03:06:11;18.10;99.90
55211;DHT22;41082;52.822;6.666;2023-07-29T03:08:36;18.10;99.90
55211;DHT22;41082;52.822;6.666;2023-07-29T03:11:07;18.20;99.90
55211;DHT22;41082;52.822;6.666;2023-07-29T03:13:33;18.10;99.90
55211;DHT22;41082;52.822;6.666;2023-07-29T03:16:09;18.10;99.90
55211;DHT22;41082;52.822;6.666;2023-07-29T03:18:35;18.10;99.90
55211;DHT22;41082;52.822;6.666;2023-07-29T03:21:01;18.10;99.90
55211;DHT22;41082;52.822;6.666;2023-07-29T03:23:28;18.10;99.90
55211;DHT22;41082;52.822;6.666;2023-07-29T03:25:55;18.00;99.90
55211;DHT22;41082;52.822;6.666;2023-07-29T03:28:26;18.00;99.90
55211;DHT22;41082;52.822;6.666;2023-07-29T03:30:53;18.00;99.90
55211;DHT22;41082;52.822;6.666;2023-07-29T03:33:19;18.00;99.90
55211;DHT22;41082;52.822;6.666;2023-07-29T03:35:44;18.00;99.90
55211;DHT22;41082;52.822;6.666;2023-07-29T03:38:11;18.00;99.90
55211;DHT22;41082;52.822;6.666;2023-07-29T03:40:38;17.90;99.90
55211;DHT22;41082;52.822;6.666;2023-07-29T03:43:04;17.90;99.90
55211;DHT22;41082;52.822;6.666;2023-07-29T03:45:30;17.90;99.90
55211;DHT22;41082;52.822;6.666;2023-07-29T03:47:55;17.90;99.90
55211;DHT22;41082;52.822;6.666;2023-07-29T03:50:21;17.90;99.90
55211;DHT22;41082;52.822;6.666;2023-07-29T03:52:47;17.80;99.90
55211;DHT22;41082;52.822;6.666;2023-07-29T03:55:12;17.80;99.90
55211;DHT22;41082;52.822;6.666;2023-07-29T03:57:38;17.80;99.90
55211;DHT22;41082;52.822;6.666;2023-07-29T04:00:04;17.80;99.90
55211;DHT22;41082;52.822;6.666;2023-07-29T04:02:30;17.70;99.90
55211;DHT22;41082;52.822;6.666;2023-07-29T04:04:56;17.70;99.90
55211;DHT22;41082;52.822;6.666;2023-07-29T04:07:21;17.70;99.90
55211;DHT22;41082;52.822;6.666;2023-07-29T04:09:47;17.70;99.90
55211;DHT22;41082;52.822;6.666;2023-07-29T04:12:13;17.70;99.90
55211;DHT22;41082;52.822;6.666;2023-07-29T04:14:38;17.70;99.90
55211;DHT22;41082;52.822;6.666;2023-07-29T04:17:04;17.70;99.90
55211;DHT22;41082;52.822;6.666;2023-07-29T04:19:30;17.70;99.90
55211;DHT22;41082;52.822;6.666;2023-07-29T04:21:55;17.70;99.90
55211;DHT22;41082;52.822;6.666;2023-07-29T04:24:21;17.70;99.90
55211;DHT22;41082;52.822;6.666;2023-07-29T04:26:49;17.70;99.90
55211;DHT22;41082;52.822;6.666;2023-07-29T04:29:14;17.70;99.90
55211;DHT22;41082;52.822;6.666;2023-07-29T04:31:40;17.70;99.90
55211;DHT22;41082;52.822;6.666;2023-07-29T04:34:06;17.70;99.90
55211;DHT22;41082;52.822;6.666;2023-07-29T04:36:31;17.70;99.90
55211;DHT22;41082;52.822;6.666;2023-07-29T04:38:57;17.80;99.90
55211;DHT22;41082;52.822;6.666;2023-07-29T04:41:22;17.80;99.90
55211;DHT22;41082;52.822;6.666;2023-07-29T04:43:48;17.80;99.90
55211;DHT22;41082;52.822;6.666;2023-07-29T04:46:15;17.80;99.90
55211;DHT22;41082;52.822;6.666;2023-07-29T04:48:40;17.80;99.90
55211;DHT22;41082;52.822;6.666;2023-07-29T04:51:06;17.80;99.90
55211;DHT22;41082;52.822;6.666;2023-07-29T04:53:32;17.80;99.90
55211;DHT22;41082;52.822;6.666;2023-07-29T04:55:58;17.80;99.90
55211;DHT22;41082;52.822;6.666;2023-07-29T04:58:23;17.80;99.90
55211;DHT22;41082;52.822;6.666;2023-07-29T05:00:49;17.90;99.90
55211;DHT22;41082;52.822;6.666;2023-07-29T05:03:15;17.80;99.90
55211;DHT22;41082;52.822;6.666;2023-07-29T05:05:40;17.80;99.90
55211;DHT22;41082;52.822;6.666;2023-07-29T05:08:06;17.80;99.90
55211;DHT22;41082;52.822;6.666;2023-07-29T05:10:32;17.90;99.90
55211;DHT22;41082;52.822;6.666;2023-07-29T05:12:57;17.90;99.90
55211;DHT22;41082;52.822;6.666;2023-07-29T05:15:23;17.90;99.90
55211;DHT22;41082;52.822;6.666;2023-07-29T05:17:48;17.90;99.90
55211;DHT22;41082;52.822;6.666;2023-07-29T05:20:14;17.90;99.90
55211;DHT22;41082;52.822;6.666;2023-07-29T05:22:39;17.90;99.90
55211;DHT22;41082;52.822;6.666;2023-07-29T05:25:06;17.90;99.90
55211;DHT22;41082;52.822;6.666;2023-07-29T05:27:31;18.00;99.90
55211;DHT22;41082;52.822;6.666;2023-07-29T05:29:57;18.00;99.90
55211;DHT22;41082;52.822;6.666;2023-07-29T05:32:22;18.00;99.90
55211;DHT22;41082;52.822;6.666;2023-07-29T05:34:48;18.10;99.90
55211;DHT22;41082;52.822;6.666;2023-07-29T05:37:14;18.10;99.90
55211;DHT22;41082;52.822;6.666;2023-07-29T05:39:39;18.10;99.90
55211;DHT22;41082;52.822;6.666;2023-07-29T05:42:05;18.10;99.90
55211;DHT22;41082;52.822;6.666;2023-07-29T05:44:31;18.20;99.90
55211;DHT22;41082;52.822;6.666;2023-07-29T05:46:57;18.20;99.90
55211;DHT22;41082;52.822;6.666;2023-07-29T05:49:23;18.20;99.90
55211;DHT22;41082;52.822;6.666;2023-07-29T05:51:48;18.20;99.90
55211;DHT22;41082;52.822;6.666;2023-07-29T05:54:17;18.30;99.90
55211;DHT22;41082;52.822;6.666;2023-07-29T05:56:43;18.30;99.90
55211;DHT22;41082;52.822;6.666;2023-07-29T05:59:08;18.30;99.90
55211;DHT22;41082;52.822;6.666;2023-07-29T06:01:34;18.30;99.90
55211;DHT22;41082;52.822;6.666;2023-07-29T06:04:00;18.40;99.90
55211;DHT22;41082;52.822;6.666;2023-07-29T06:06:26;18.40;99.90
55211;DHT22;41082;52.822;6.666;2023-07-29T06:08:52;18.40;99.90
55211;DHT22;41082;52.822;6.666;2023-07-29T06:11:18;18.50;99.90
55211;DHT22;41082;52.822;6.666;2023-07-29T06:13:43;18.50;99.90
55211;DHT22;41082;52.822;6.666;2023-07-29T06:16:09;18.50;99.90
55211;DHT22;41082;52.822;6.666;2023-07-29T06:18:34;18.50;99.90
55211;DHT22;41082;52.822;6.666;2023-07-29T06:21:00;18.60;99.90
55211;DHT22;41082;52.822;6.666;2023-07-29T06:23:26;18.60;99.90
55211;DHT22;41082;52.822;6.666;2023-07-29T06:25:51;18.70;99.90
55211;DHT22;41082;52.822;6.666;2023-07-29T06:28:17;18.80;99.90
55211;DHT22;41082;52.822;6.666;2023-07-29T06:30:42;18.80;99.90
55211;DHT22;41082;52.822;6.666;2023-07-29T06:33:08;18.90;99.90
55211;DHT22;41082;52.822;6.666;2023-07-29T06:35:34;19.00;99.90
55211;DHT22;41082;52.822;6.666;2023-07-29T06:38:00;19.10;99.90
55211;DHT22;41082;52.822;6.666;2023-07-29T06:40:25;19.10;99.90
55211;DHT22;41082;52.822;6.666;2023-07-29T06:42:51;19.20;99.90
55211;DHT22;41082;52.822;6.666;2023-07-29T06:45:17;19.20;99.90
55211;DHT22;41082;52.822;6.666;2023-07-29T06:47:42;19.30;99.90
55211;DHT22;41082;52.822;6.666;2023-07-29T06:50:08;19.30;99.90
55211;DHT22;41082;52.822;6.666;2023-07-29T06:52:34;19.40;99.90
55211;DHT22;41082;52.822;6.666;2023-07-29T06:55:00;19.50;99.90
55211;DHT22;41082;52.822;6.666;2023-07-29T06:57:25;19.60;99.90
55211;DHT22;41082;52.822;6.666;2023-07-29T06:59:51;19.70;99.90
55211;DHT22;41082;52.822;6.666;2023-07-29T07:02:17;19.80;99.90
55211;DHT22;41082;52.822;6.666;2023-07-29T07:04:42;19.80;99.90
55211;DHT22;41082;52.822;6.666;2023-07-29T07:07:08;19.80;99.90
55211;DHT22;41082;52.822;6.666;2023-07-29T07:09:33;19.90;99.90
55211;DHT22;41082;52.822;6.666;2023-07-29T07:11:59;19.90;99.90
55211;DHT22;41082;52.822;6.666;2023-07-29T07:14:24;20.00;99.90
55211;DHT22;41082;52.822;6.666;2023-07-29T07:16:51;20.00;99.90
55211;DHT22;41082;52.822;6.666;2023-07-29T07:19:16;20.10;99.90
55211;DHT22;41082;52.822;6.666;2023-07-29T07:21:42;20.10;99.90
55211;DHT22;41082;52.822;6.666;2023-07-29T07:24:07;20.30;99.90
55211;DHT22;41082;52.822;6.666;2023-07-29T07:26:33;20.40;99.90
55211;DHT22;41082;52.822;6.666;2023-07-29T07:28:58;20.40;99.90
55211;DHT22;41082;52.822;6.666;2023-07-29T07:31:24;20.50;99.90
55211;DHT22;41082;52.822;6.666;2023-07-29T07:33:49;20.60;99.90
55211;DHT22;41082;52.822;6.666;2023-07-29T07:36:15;20.70;99.90
55211;DHT22;41082;52.822;6.666;2023-07-29T07:38:41;20.80;99.90
55211;DHT22;41082;52.822;6.666;2023-07-29T07:41:06;20.90;99.90
55211;DHT22;41082;52.822;6.666;2023-07-29T07:43:32;20.90;99.90
55211;DHT22;41082;52.822;6.666;2023-07-29T07:45:59;21.00;99.90
55211;DHT22;41082;52.822;6.666;2023-07-29T07:48:25;21.10;99.90
55211;DHT22;41082;52.822;6.666;2023-07-29T07:50:50;21.20;99.90
55211;DHT22;41082;52.822;6.666;2023-07-29T07:53:16;21.30;99.90
55211;DHT22;41082;52.822;6.666;2023-07-29T07:55:42;21.30;99.90
55211;DHT22;41082;52.822;6.666;2023-07-29T07:58:07;21.30;99.90
55211;DHT22;41082;52.822;6.666;2023-07-29T08:00:33;21.30;99.90
55211;DHT22;41082;52.822;6.666;2023-07-29T08:02:58;21.30;99.90
55211;DHT22;41082;52.822;6.666;2023-07-29T08:05:24;21.30;99.90
55211;DHT22;41082;52.822;6.666;2023-07-29T08:07:49;21.30;99.90
55211;DHT22;41082;52.822;6.666;2023-07-29T08:10:15;21.40;99.90
55211;DHT22;41082;52.822;6.666;2023-07-29T08:12:41;21.40;99.90
55211;DHT22;41082;52.822;6.666;2023-07-29T08:15:06;21.40;99.90
55211;DHT22;41082;52.822;6.666;2023-07-29T08:17:32;21.40;99.90
55211;DHT22;41082;52.822;6.666;2023-07-29T08:19:58;21.40;99.90
55211;DHT22;41082;52.822;6.666;2023-07-29T08:22:23;21.40;99.90
55211;DHT22;41082;52.822;6.666;2023-07-29T08:24:49;21.50;99.90
55211;DHT22;41082;52.822;6.666;2023-07-29T08:27:14;21.60;99.90
55211;DHT22;41082;52.822;6.666;2023-07-29T08:29:40;21.70;99.90
55211;DHT22;41082;52.822;6.666;2023-07-29T08:32:05;21.90;99.90
55211;DHT22;41082;52.822;6.666;2023-07-29T08:34:31;22.00;99.90
55211;DHT22;41082;52.822;6.666;2023-07-29T08:36:56;21.90;99.90
55211;DHT22;41082;52.822;6.666;2023-07-29T08:39:22;22.00;99.90
55211;DHT22;41082;52.822;6.666;2023-07-29T08:42:17;22.10;99.90
55211;DHT22;41082;52.822;6.666;2023-07-29T08:44:45;22.20;99.90
55211;DHT22;41082;52.822;6.666;2023-07-29T08:47:13;22.20;99.90
55211;DHT22;41082;52.822;6.666;2023-07-29T08:49:40;22.40;99.90
55211;DHT22;41082;52.822;6.666;2023-07-29T08:52:07;22.60;99.90
55211;DHT22;41082;52.822;6.666;2023-07-29T08:54:35;22.90;99.90
55211;DHT22;41082;52.822;6.666;2023-07-29T08:57:00;23.10;99.90
55211;DHT22;41082;52.822;6.666;2023-07-29T08:59:28;23.20;99.90
55211;DHT22;41082;52.822;6.666;2023-07-29T09:01:54;23.30;99.90
55211;DHT22;41082;52.822;6.666;2023-07-29T09:04:23;23.30;99.90
55211;DHT22;41082;52.822;6.666;2023-07-29T09:06:50;23.30;99.90
55211;DHT22;41082;52.822;6.666;2023-07-29T09:09:16;23.30;99.90
55211;DHT22;41082;52.822;6.666;2023-07-29T09:11:42;23.40;99.90
55211;DHT22;41082;52.822;6.666;2023-07-29T09:14:09;23.50;99.90
55211;DHT22;41082;52.822;6.666;2023-07-29T09:16:35;23.70;99.90
55211;DHT22;41082;52.822;6.666;2023-07-29T09:19:02;23.80;99.90
55211;DHT22;41082;52.822;6.666;2023-07-29T09:21:28;23.90;99.90
55211;DHT22;41082;52.822;6.666;2023-07-29T09:23:54;24.00;99.90
55211;DHT22;41082;52.822;6.666;2023-07-29T09:26:27;24.10;99.90
55211;DHT22;41082;52.822;6.666;2023-07-29T09:28:54;24.00;99.90
55211;DHT22;41082;52.822;6.666;2023-07-29T09:31:22;23.90;99.90
55211;DHT22;41082;52.822;6.666;2023-07-29T09:33:48;23.80;99.90
55211;DHT22;41082;52.822;6.666;2023-07-29T09:36:14;23.70;99.90
55211;DHT22;41082;52.822;6.666;2023-07-29T09:38:39;23.70;99.90
55211;DHT22;41082;52.822;6.666;2023-07-29T09:41:05;23.80;99.90
55211;DHT22;41082;52.822;6.666;2023-07-29T09:43:32;23.90;99.90
55211;DHT22;41082;52.822;6.666;2023-07-29T09:46:05;23.80;99.90
55211;DHT22;41082;52.822;6.666;2023-07-29T09:48:38;23.90;99.90
55211;DHT22;41082;52.822;6.666;2023-07-29T09:51:11;24.10;99.90
55211;DHT22;41082;52.822;6.666;2023-07-29T09:53:42;24.20;99.90
55211;DHT22;41082;52.822;6.666;2023-07-29T09:56:08;24.30;99.90
55211;DHT22;41082;52.822;6.666;2023-07-29T09:58:34;24.30;99.90
55211;DHT22;41082;52.822;6.666;2023-07-29T10:01:01;24.30;99.90
55211;DHT22;41082;52.822;6.666;2023-07-29T10:03:27;24.20;99.90
55211;DHT22;41082;52.822;6.666;2023-07-29T10:05:53;24.20;99.90
55211;DHT22;41082;52.822;6.666;2023-07-29T10:08:20;24.30;99.90
55211;DHT22;41082;52.822;6.666;2023-07-29T10:10:49;24.30;99.90
55211;DHT22;41082;52.822;6.666;2023-07-29T10:13:16;24.40;99.90
55211;DHT22;41082;52.822;6.666;2023-07-29T10:15:42;24.60;99.90
55211;DHT22;41082;52.822;6.666;2023-07-29T10:18:09;24.70;99.90
55211;DHT22;41082;52.822;6.666;2023-07-29T10:20:35;24.80;99.90
55211;DHT22;41082;52.822;6.666;2023-07-29T10:23:01;24.80;99.90
55211;DHT22;41082;52.822;6.666;2023-07-29T10:25:38;24.80;99.90
55211;DHT22;41082;52.822;6.666;2023-07-29T10:28:07;24.70;99.90
55211;DHT22;41082;52.822;6.666;2023-07-29T10:30:33;24.80;99.90
55211;DHT22;41082;52.822;6.666;2023-07-29T10:33:02;25.00;99.90
55211;DHT22;41082;52.822;6.666;2023-07-29T10:35:28;25.00;99.90
55211;DHT22;41082;52.822;6.666;2023-07-29T10:37:55;25.10;99.90
55211;DHT22;41082;52.822;6.666;2023-07-29T10:40:21;25.10;99.90
55211;DHT22;41082;52.822;6.666;2023-07-29T10:45:27;25.00;99.90
55211;DHT22;41082;52.822;6.666;2023-07-29T10:48:11;25.10;99.90
55211;DHT22;41082;52.822;6.666;2023-07-29T10:50:37;24.90;99.90
55211;DHT22;41082;52.822;6.666;2023-07-29T10:53:03;24.90;99.90
55211;DHT22;41082;52.822;6.666;2023-07-29T10:55:31;24.90;99.90
55211;DHT22;41082;52.822;6.666;2023-07-29T10:58:14;25.00;99.90
55211;DHT22;41082;52.822;6.666;2023-07-29T11:00:42;25.00;99.90
55211;DHT22;41082;52.822;6.666;2023-07-29T11:03:09;24.80;99.90
55211;DHT22;41082;52.822;6.666;2023-07-29T11:08:31;24.60;99.90
55211;DHT22;41082;52.822;6.666;2023-07-29T11:13:29;24.60;99.90
55211;DHT22;41082;52.822;6.666;2023-07-29T11:15:55;24.60;99.90
55211;DHT22;41082;52.822;6.666;2023-07-29T11:18:26;24.60;99.90
55211;DHT22;41082;52.822;6.666;2023-07-29T11:20:54;24.60;99.90
55211;DHT22;41082;52.822;6.666;2023-07-29T11:23:20;24.60;99.90
55211;DHT22;41082;52.822;6.666;2023-07-29T11:25:46;24.60;99.90
55211;DHT22;41082;52.822;6.666;2023-07-29T11:28:11;24.70;99.90
55211;DHT22;41082;52.822;6.666;2023-07-29T11:30:39;24.70;99.90
55211;DHT22;41082;52.822;6.666;2023-07-29T11:33:05;24.80;99.90
55211;DHT22;41082;52.822;6.666;2023-07-29T11:35:32;25.00;99.90
55211;DHT22;41082;52.822;6.666;2023-07-29T11:37:57;25.00;99.90
55211;DHT22;41082;52.822;6.666;2023-07-29T11:40:23;24.90;99.90
55211;DHT22;41082;52.822;6.666;2023-07-29T11:42:51;24.70;99.90
55211;DHT22;41082;52.822;6.666;2023-07-29T11:45:18;24.50;99.90
55211;DHT22;41082;52.822;6.666;2023-07-29T11:47:44;24.30;99.90
55211;DHT22;41082;52.822;6.666;2023-07-29T11:50:11;24.00;99.90
55211;DHT22;41082;52.822;6.666;2023-07-29T11:52:44;23.80;99.90
55211;DHT22;41082;52.822;6.666;2023-07-29T11:55:10;23.70;99.90
55211;DHT22;41082;52.822;6.666;2023-07-29T11:57:37;23.60;99.90
55211;DHT22;41082;52.822;6.666;2023-07-29T12:00:08;23.60;99.90
55211;DHT22;41082;52.822;6.666;2023-07-29T12:02:37;23.60;99.90
55211;DHT22;41082;52.822;6.666;2023-07-29T12:05:04;23.70;99.90
55211;DHT22;41082;52.822;6.666;2023-07-29T12:07:31;23.80;99.90
55211;DHT22;41082;52.822;6.666;2023-07-29T12:09:57;23.90;99.90
55211;DHT22;41082;52.822;6.666;2023-07-29T12:12:23;24.00;99.90
55211;DHT22;41082;52.822;6.666;2023-07-29T12:14:48;24.00;99.90
55211;DHT22;41082;52.822;6.666;2023-07-29T12:17:14;24.00;99.90
55211;DHT22;41082;52.822;6.666;2023-07-29T12:19:41;24.00;99.90
55211;DHT22;41082;52.822;6.666;2023-07-29T12:22:08;24.00;99.90
55211;DHT22;41082;52.822;6.666;2023-07-29T12:24:39;24.00;99.90
55211;DHT22;41082;52.822;6.666;2023-07-29T12:27:10;24.10;99.90
55211;DHT22;41082;52.822;6.666;2023-07-29T12:29:40;24.30;99.90
55211;DHT22;41082;52.822;6.666;2023-07-29T12:32:07;24.40;99.90
55211;DHT22;41082;52.822;6.666;2023-07-29T12:34:32;24.60;99.90
55211;DHT22;41082;52.822;6.666;2023-07-29T12:36:59;24.70;99.90
55211;DHT22;41082;52.822;6.666;2023-07-29T12:39:29;24.70;99.90
55211;DHT22;41082;52.822;6.666;2023-07-29T12:41:55;24.70;99.90
55211;DHT22;41082;52.822;6.666;2023-07-29T12:44:23;24.70;99.90
55211;DHT22;41082;52.822;6.666;2023-07-29T12:46:49;24.70;99.70
55211;DHT22;41082;52.822;6.666;2023-07-29T12:49:14;24.70;99.60
55211;DHT22;41082;52.822;6.666;2023-07-29T12:51:40;24.60;99.30
55211;DHT22;41082;52.822;6.666;2023-07-29T12:54:06;24.60;99.50
55211;DHT22;41082;52.822;6.666;2023-07-29T12:56:32;24.60;99.80
55211;DHT22;41082;52.822;6.666;2023-07-29T12:58:58;24.60;99.90
55211;DHT22;41082;52.822;6.666;2023-07-29T13:01:25;24.60;99.80
55211;DHT22;41082;52.822;6.666;2023-07-29T13:03:50;24.60;99.30
55211;DHT22;41082;52.822;6.666;2023-07-29T13:06:16;24.50;99.10
55211;DHT22;41082;52.822;6.666;2023-07-29T13:08:42;24.30;98.60
55211;DHT22;41082;52.822;6.666;2023-07-29T13:11:08;24.10;98.60
55211;DHT22;41082;52.822;6.666;2023-07-29T13:13:34;23.90;99.40
55211;DHT22;41082;52.822;6.666;2023-07-29T13:16:00;23.70;99.90
55211;DHT22;41082;52.822;6.666;2023-07-29T13:18:25;23.60;99.90
55211;DHT22;41082;52.822;6.666;2023-07-29T13:20:51;23.50;99.90
55211;DHT22;41082;52.822;6.666;2023-07-29T13:23:17;23.40;99.90
55211;DHT22;41082;52.822;6.666;2023-07-29T13:25:43;23.40;99.90
55211;DHT22;41082;52.822;6.666;2023-07-29T13:28:10;23.50;99.90
55211;DHT22;41082;52.822;6.666;2023-07-29T13:30:36;23.50;99.90
55211;DHT22;41082;52.822;6.666;2023-07-29T13:33:01;23.50;99.90
55211;DHT22;41082;52.822;6.666;2023-07-29T13:35:27;23.40;99.90
55211;DHT22;41082;52.822;6.666;2023-07-29T13:37:53;23.30;99.90
55211;DHT22;41082;52.822;6.666;2023-07-29T13:40:19;23.10;99.90
55211;DHT22;41082;52.822;6.666;2023-07-29T13:42:44;23.00;99.90
55211;DHT22;41082;52.822;6.666;2023-07-29T13:45:10;22.80;99.90
55211;DHT22;41082;52.822;6.666;2023-07-29T13:47:36;22.50;99.90
55211;DHT22;41082;52.822;6.666;2023-07-29T13:50:02;22.30;99.90
55211;DHT22;41082;52.822;6.666;2023-07-29T13:52:28;22.00;99.90
55211;DHT22;41082;52.822;6.666;2023-07-29T13:54:53;21.90;99.90
55211;DHT22;41082;52.822;6.666;2023-07-29T13:57:19;21.80;99.90
55211;DHT22;41082;52.822;6.666;2023-07-29T13:59:44;21.60;99.90
55211;DHT22;41082;52.822;6.666;2023-07-29T14:02:10;21.60;99.90
55211;DHT22;41082;52.822;6.666;2023-07-29T14:04:35;21.50;99.90
55211;DHT22;41082;52.822;6.666;2023-07-29T14:07:01;21.40;99.90
55211;DHT22;41082;52.822;6.666;2023-07-29T14:09:27;21.40;99.90
55211;DHT22;41082;52.822;6.666;2023-07-29T14:11:54;21.40;99.90
55211;DHT22;41082;52.822;6.666;2023-07-29T14:14:20;21.30;99.90
55211;DHT22;41082;52.822;6.666;2023-07-29T14:16:45;21.30;99.90
55211;DHT22;41082;52.822;6.666;2023-07-29T14:19:12;21.20;99.90
55211;DHT22;41082;52.822;6.666;2023-07-29T14:21:38;21.20;99.90
55211;DHT22;41082;52.822;6.666;2023-07-29T14:24:04;21.20;99.90
55211;DHT22;41082;52.822;6.666;2023-07-29T14:26:29;21.20;99.90
55211;DHT22;41082;52.822;6.666;2023-07-29T14:28:55;21.20;99.90
55211;DHT22;41082;52.822;6.666;2023-07-29T14:31:21;21.20;99.90
55211;DHT22;41082;52.822;6.666;2023-07-29T14:33:47;21.20;99.90
55211;DHT22;41082;52.822;6.666;2023-07-29T14:36:15;21.20;99.90
55211;DHT22;41082;52.822;6.666;2023-07-29T14:38:40;21.20;99.90
55211;DHT22;41082;52.822;6.666;2023-07-29T14:41:06;21.20;99.90
55211;DHT22;41082;52.822;6.666;2023-07-29T14:43:32;21.20;99.90
55211;DHT22;41082;52.822;6.666;2023-07-29T14:45:57;21.20;99.90
55211;DHT22;41082;52.822;6.666;2023-07-29T14:48:23;21.20;99.90
55211;DHT22;41082;52.822;6.666;2023-07-29T14:50:49;21.20;99.90
55211;DHT22;41082;52.822;6.666;2023-07-29T14:53:14;21.20;99.90
55211;DHT22;41082;52.822;6.666;2023-07-29T14:55:40;21.10;99.90
55211;DHT22;41082;52.822;6.666;2023-07-29T14:58:06;21.20;99.90
55211;DHT22;41082;52.822;6.666;2023-07-29T15:00:31;21.30;99.90
55211;DHT22;41082;52.822;6.666;2023-07-29T15:02:57;21.40;99.90
55211;DHT22;41082;52.822;6.666;2023-07-29T15:05:23;21.60;99.90
55211;DHT22;41082;52.822;6.666;2023-07-29T15:07:48;21.90;99.90
55211;DHT22;41082;52.822;6.666;2023-07-29T15:10:15;22.00;99.90
55211;DHT22;41082;52.822;6.666;2023-07-29T15:12:41;22.20;99.90
55211;DHT22;41082;52.822;6.666;2023-07-29T15:15:08;22.40;99.90
55211;DHT22;41082;52.822;6.666;2023-07-29T15:17:33;22.40;99.90
55211;DHT22;41082;52.822;6.666;2023-07-29T15:19:59;22.60;99.90
55211;DHT22;41082;52.822;6.666;2023-07-29T15:22:25;22.60;99.90
55211;DHT22;41082;52.822;6.666;2023-07-29T15:24:50;22.70;99.90
55211;DHT22;41082;52.822;6.666;2023-07-29T15:27:16;22.80;99.90
55211;DHT22;41082;52.822;6.666;2023-07-29T15:29:41;22.80;99.90
55211;DHT22;41082;52.822;6.666;2023-07-29T15:32:07;22.80;99.90
55211;DHT22;41082;52.822;6.666;2023-07-29T15:34:33;22.80;99.90
55211;DHT22;41082;52.822;6.666;2023-07-29T15:36:58;22.70;99.90